Loisir ou Compétition : Rejoignez un Club de la Fédération

Résultats

SAMSE NATIONAL TOUR 5 - KO SPRINT

LES ROUSSES - Stade des Tuffes

KO-QLF Dames

Jury de Compétition

Délégué Technique :
TICHIT PHILIPPE (MJ)
D.T. Adjoint :
FROSSARD CHRISTIAN (SA)
Dir. Epreuve :
ARDIET NICOLAS (MJ)

Caractéristiques de la Piste

Piste :
Stade des Tuffes
Distance :
1 km
Point Haut :
 
Point Bas :
 
Montée Tot. :
 
Montée Max. :
 
Homologation :
 

Pénalité Appliquée :
5.0000
Coefficient :
1200

Catégorie :
U20+SEN
Style :
L
Clt Dos Clt/Cat Code An Nom Prénom Com Club Temps Ecart Points
Classés
1 122 1/SEN FFS2649041 1998 QUINTIN LENA MB SC GD BORNAN 2:23.94 00.00 5.00
2 124 1/U20 FFS2667044 2002 VEYRE MAELLE AP MTGVE V.CLAR 2:25.51 01.57 18.09
3 121 2/SEN FFS2353920 1992 LATUILLIERE ENORA MB CS CHAMONIX 2:26.11 02.17 23.09
4 147 2/U20 FFS2660755 2002 CLOETENS MAYA DA GUC GRENOBLE 2:29.97 06.03 55.27
5 145 3/U20 FFS2661475 2001 REMONNAY NOEMIE MJ OYE-PALLET 2:30.43 06.49 59.11
6 134 4/U20 FFS2665303 2002 MICHELON OCEANE SA BAUGES S.N 2:30.96 07.02 63.52
7 127 5/U20 FFS2665517 2001 KUREK TANIA MB SCNP ROCHOIS 2:31.78 07.84 70.36
8 125 6/U20 FFS2670898 2002 PIERREL JULIE MB SC GD BORNAN 2:31.96 08.02 71.86
9 139 7/U20 FFS2677081 2002 JEANNIER LEONIE MJ SC VERRIERES 2:31.99 08.05 72.11
10 128 8/U20 FFS2649539 2001 EVEN MAYA DA SA MEAUDRAIS 2:32.29 08.35 74.61
11 131 9/U20 FFS2651004 2000 CHEVAT LOU ANNE DA US AUTRANNAI 2:32.51 08.57 76.45
12 129 10/U20 FFS2659922 2001 SUIFFET AMELIE SA CS LA FECLAZ 2:32.52 08.58 76.53
13 146 11/U20 FFS2655903 2002 BERTRAND FANY SA CS MERIBEL 2:33.38 09.44 83.70
14 126 12/U20 FFS2652953 2000 REYNAUD LOU DA SN CHARTROUS 2:33.76 09.82 86.87
15 123 3/SEN FFS2667438 1999 GAL MELISSA MB SCNP ROCHOIS 2:34.17 10.23 90.29
16 152 13/U20 FFS2660141 2000 PERRILLAT MONET SIDONIE MB SC GD BORNAN 2:34.37 10.43 91.95
17 143 14/U20 FFS2676452 2002 PAGNIER CLOE MJ CHAUX NEUVE 2:35.29 11.35 99.62
17 151 14/U20 FFS2644719 2002 RICHON CAPUCINE SA CS LA FECLAZ 2:35.29 11.35 99.62
19 140 16/U20 FFS2666847 2001 GAILLARD LIAUDON ALICIA MB SC GD BORNAN 2:35.81 11.87 103.96
20 136 17/U20 FFS2670554 2001 COUPE CAMILLE SA CS LA FECLAZ 2:35.88 11.94 104.54
21 166 18/U20 FFS2671448 2002 PATUREL DORINE MB SCNP ROCHOIS 2:35.93 11.99 104.96
22 148 4/SEN FFS2628683 1999 BOUVARD EVE SA COURCHEVEL 2:36.20 12.26 107.21
23 155 5/SEN FFS2646599 1999 BEPOIX OCEANE MJ SMBM/MORBIER 2:36.22 12.28 107.38
24 171 19/U20 FFS2669529 2002 MOUGIN THEA MJ SC GRANDVAUX 2:36.64 12.70 110.88
25 130 20/U20 FFS2643665 2001 DUCHAUFOUR EVE ONDINE MJ SC GRANDVAUX 2:36.82 12.88 112.38
26 144 21/U20 FFS2652071 2002 RICHARD JEANNE MB LES GETS S.C 2:36.91 12.97 113.13
27 156 22/U20 FFS2671780 2002 DIDIERLAURENT CLEMENCE MV VAGNEY ROCHE 2:37.32 13.38 116.55
28 175 23/U20 FFS2664314 2002 BARON FIONA MJ VAL MORTEAU 2:37.87 13.93 121.13
29 137 24/U20 FFS2682591 2001 GENY JULIETTE MB SALLANCHES 2:38.15 14.21 123.47
30 160 25/U20 FFS2665257 2000 JEANNIER LOUISE MJ SC VERRIERES 2:38.55 14.61 126.80
31 154 26/U20 FFS2665516 2001 LEHMANN LISA MB SCNP ROCHOIS 2:38.85 14.91 129.30
32 174 27/U20 FFS2665310 2002 MUNIER ELODIE SA CS VAL CENIS 2:38.86 14.92 129.39
33 153 28/U20 FFS2666967 2000 BLONDEAU MARILOU MJ SC MONT NOIR 2:39.06 15.12 131.05
34 141 29/U20 FFS2652952 2000 FINE HANNA DA SN CHARTROUS 2:39.49 15.55 134.64
35 132 30/U20 FFS2647512 2002 CHAPPAZ FELICIE MB CS LA CLUSAZ 2:39.56 15.62 135.22
36 161 31/U20 FFS2653209 2002 DUBOIS SALOMEE MJ SKI ROUSSES 2:39.67 15.73 136.14
37 164 32/U20 FFS2676611 2002 COURVOISIER CELIA MJ SC MONT NOIR 2:39.76 15.82 136.89
38 176 33/U20 FFS2659929 2002 CERDAN ANNOUK LY US CORMARANC 2:40.03 16.09 139.14
39 178 34/U20 FFS2654839 2002 GREAU ALIZEE LY SC BRENOD 2:40.43 16.49 142.47
40 157 35/U20 FFS2653734 2001 CHICHIGNOUD MARGOT DA US AUTRANNAI 2:40.72 16.78 144.89
41 133 36/U20 FFS2660280 2001 GAUTHIER ALEXIANE SA CS LA FECLAZ 2:40.97 17.03 146.98
42 149 37/U20 FFS2665514 2001 CHAMOUX MATHILDE MB SCNP ROCHOIS 2:41.31 17.37 149.81
43 158 38/U20 FFS2649489 2002 GAILLARD MARGAUX DA SA MEAUDRAIS 2:42.05 18.11 155.98
44 168 39/U20 FFS2665287 2001 CHARVOLIN MARIE DA SNB CHAMROUS 2:42.09 18.15 156.31
45 150 40/U20 FFS2670897 2002 FAVRE BONVIN ZOE MB SC GD BORNAN 2:42.22 18.28 157.40
46 167 41/U20 FFS2665748 2002 LAURENCE COLINE MJ CSR PONTARLI 2:42.26 18.32 157.73
47 165 42/U20 FFS2671190 2002 BILLET EMMA MJ OYE-PALLET 2:42.78 18.84 162.07
48 142 6/SEN FFS2639530 1999 MOYSE CLAIRE MJ HT JURA SKI 2:42.94 19.00 163.40
49 135 43/U20 FFS2665755 2001 JOMIER MAIWENN MB DRAGONS ANNY 2:43.40 19.46 167.23
50 159 44/U20 FFS2644094 2002 FORTINA NOEE MB SC CONTAMINE 2:43.83 19.89 170.82
51 138 7/SEN FFS2660000 1999 REMY CHLOE MV LA BRESSAUDE 2:44.53 20.59 176.65
52 172 45/U20 FFS2666200 2000 GRANDCLEMENT FLORINE MJ PREMANON SC 2:44.76 20.82 178.57
53 185 46/U20 FFS2675560 2002 CHOUARD JULIETTE MJ SC GRANDVAUX 2:45.34 21.40 183.41
54 184 47/U20 FAE010 2001 SELLES MARIA SP CATALOGNE 2:45.46 21.52 184.41
55 163 48/U20 FFS2667595 2002 BUET CLEMENCE MJ SMBM/MORBIER 2:47.57 23.63 202.00
56 170 49/U20 FFS2671188 2002 PELLEGRINI AUGUSTINE MJ OYE-PALLET 2:48.09 24.15 206.33
57 183 50/U20 FAE005 2002 MORENO MARTA SP CATALOGNE 2:48.40 24.46 208.92
58 180 51/U20 FFS2668155 2002 SAVOIE LISA MJ HT JURA SKI 2:49.43 25.49 217.51
59 182 52/U20 FAE002 2001 BARRES MARTINA SP CATALOGNE 2:50.02 26.08 222.42
60 162 53/U20 FFS2660497 2001 NICOLL EMILY DA US AUTRANNAI 2:51.18 27.24 232.09
61 177 54/U20 FFS2670906 2002 PLACE ISELINE MB SC GD BORNAN 2:51.95 28.01 238.51
62 179 55/U20 FFS2676861 2002 MERMILLON HORTENSE LY SC BRENOD 2:53.68 29.74 252.94
63 173 56/U20 FFS2670258 2002 CREDOZ ALICIA MB CS LA CLUSAZ 2:54.69 30.75 261.36
64 169 57/U20 FFS2655476 2001 PIERRAT MARIE LOU MV VAGNEY ROCHE 3:00.23 36.29 307.54
65 181 58/U20 FFS2662332 2000 GUYOT LOUISE MJ SMBM/MORBIER 3:00.73 36.79 311.71